Last 48 Hours

Top of 15 - 9,047ft

15 Minute Data | America/Los_Angeles
as of 9/2/26 9:29 AM PDT
Date & Time Temp (°F) WindChill (°F) RH (%) Dew Pt (°F) Wet Bulb (°F) Wind Dir (°) Wind Spd (mph) Wind Gust (mph) Wind Gst Dir (°) Daily Min Temp (°F) Daily Max Temp (°F) Daily Max Wind (mph)
9/2/26 - 0915 39.0 32.1 46 19.9 32.3 SW | 225 10.7 24.2 WSW | 239 35.6 40.2 38.0
9/2/26 - 0900 37.8 30.9 46 18.9 31.4 SW | 226 10.0 25.2 SW | 225 35.6 39.8 38.0
9/2/26 - 0845 37.9 30.4 46 18.9 31.4 SW | 223 11.5 27.2 SW | 220 35.6 39.8 38.0
9/2/26 - 0830 38.1 31.9 45 18.7 31.5 SW | 221 8.7 18.8 WSW | 247 35.6 39.8 38.0
9/2/26 - 0815 37.6 30.7 46 18.5 31.1 SW | 223 9.9 26.2 SW | 234 35.6 39.8 38.0
9/2/26 - 0800 37.4 30.4 46 18.6 31.0 SW | 220 9.8 20.6 W | 269 35.6 39.8 38.0
9/2/26 - 0745 36.8 30.4 47 18.2 30.6 SW | 220 8.6 27.6 WSW | 249 35.6 39.8 38.0
9/2/26 - 0730 36.7 30.3 46 18.0 30.5 SW | 221 8.5 23.1 WSW | 242 35.6 39.8 38.0
9/2/26 - 0715 36.5 29.4 47 18.2 30.4 SW | 223 9.8 24.7 SSW | 205 35.6 39.8 38.0
9/2/26 - 0700 36.3 29.3 47 18.2 30.3 SW | 216 9.5 24.5 SW | 220 35.6 39.8 38.0
9/2/26 - 0645 36.2 30.3 47 17.8 30.1 SW | 218 7.4 22.6 SW | 231 35.6 39.8 38.0
9/2/26 - 0630 35.8 30.3 50 18.8 30.2 SSW | 213 6.8 20.3 SSW | 203 35.6 39.8 38.0
9/2/26 - 0615 36.0 29.5 49 18.6 30.2 SW | 229 8.3 22.4 WNW | 293 35.7 39.8 38.0
9/2/26 - 0600 36.2 30.4 48 18.6 30.3 SW | 222 7.2 22.5 WSW | 250 35.8 39.8 38.0
9/2/26 - 0545 36.3 30.6 50 19.2 30.5 SW | 225 7.1 29.3 W | 264 36.1 39.8 38.0
9/2/26 - 0530 36.2 29.0 54 21.2 31.0 SW | 234 9.8 23.0 WSW | 249 36.1 39.8 38.0
9/2/26 - 0515 36.4 28.6 57 22.5 31.4 SW | 235 11.3 28.4 SW | 235 36.1 39.8 38.0
9/2/26 - 0500 36.5 28.0 58 23.0 31.7 WSW | 240 13.3 34.8 WSW | 245 36.1 39.8 38.0
9/2/26 - 0445 36.7 28.4 58 23.2 31.9 WSW | 240 12.7 33.5 SW | 231 36.3 39.8 38.0
9/2/26 - 0430 37.3 30.7 55 22.6 32.0 SW | 235 9.0 26.8 SW | 236 36.7 39.8 38.0
9/2/26 - 0415 37.4 30.8 55 22.6 32.1 SW | 229 9.2 24.1 SW | 234 37.2 39.8 38.0
9/2/26 - 0400 37.8 31.6 51 21.4 32.0 SW | 219 8.7 27.7 SSW | 200 37.7 39.8 38.0
9/2/26 - 0345 38.0 30.2 49 20.6 31.9 SW | 232 12.4 24.6 SW | 228 37.8 39.8 38.0
9/2/26 - 0330 38.1 31.5 49 20.8 32.0 SW | 228 9.4 27.7 W | 264 37.9 39.8 38.0
9/2/26 - 0315 38.1 31.5 50 21.3 32.2 SW | 234 9.7 23.1 WNW | 293 38.0 39.8 38.0
9/2/26 - 0300 38.0 30.4 52 21.9 32.3 SW | 227 11.9 38.0 SSW | 208 38.0 39.8 38.0
9/2/26 - 0245 38.2 31.0 52 22.0 32.4 WSW | 238 10.9 28.8 W | 276 38.0 39.8 37.0
9/2/26 - 0230 38.6 31.7 50 21.6 32.5 SW | 234 10.4 24.7 S | 177 38.0 39.8 37.0
9/2/26 - 0215 39.1 30.9 45 19.8 32.4 SW | 235 14.3 34.5 WSW | 244 38.7 39.8 37.0
9/2/26 - 0200 39.1 31.4 45 19.4 32.3 SW | 233 12.9 29.9 WSW | 255 38.7 39.8 37.0
9/2/26 - 0145 39.3 31.3 43 18.9 32.2 SW | 222 13.7 33.0 S | 173 38.7 39.8 37.0
9/2/26 - 0130 39.6 31.2 43 18.6 32.3 SW | 227 15.1 37.0 WSW | 257 38.7 39.8 37.0
9/2/26 - 0115 39.0 31.0 45 19.3 32.2 SW | 230 13.7 33.0 SW | 231 38.7 39.6 33.0
9/2/26 - 0100 38.7 30.0 45 19.3 32.0 SW | 230 15.7 36.8 WSW | 252 38.3 54.0 40.0
9/2/26 - 0045 39.2 31.1 43 18.5 32.1 SW | 226 14.2 39.2 WSW | 238 38.3 54.0 40.0
9/2/26 - 0030 38.6 30.9 45 19.3 31.9 SW | 224 12.3 31.4 SSW | 192 38.3 54.0 40.0
9/2/26 - 0015 38.6 30.3 45 18.9 31.8 SW | 227 14.1 31.8 WSW | 246 38.3 54.0 40.0
9/2/26 - 0000 38.7 30.3 46 19.5 32.0 SW | 230 14.5 32.0 WSW | 255 38.4 54.0 40.0
9/1/26 - 2345 39.4 31.4 44 19.3 32.4 SW | 230 13.8 33.7 SSW | 211 39.0 54.0 40.0
9/1/26 - 2330 39.5 32.2 45 19.7 32.6 SW | 225 12.0 29.4 SW | 224 39.2 54.0 40.0
9/1/26 - 2315 40.0 32.7 44 20.1 33.0 SW | 228 12.5 32.4 NW | 310 39.2 54.0 40.0
9/1/26 - 2300 40.5 33.2 44 20.4 33.3 SW | 221 12.6 34.2 SSW | 200 39.2 54.0 40.0
9/1/26 - 2245 40.0 32.3 48 22.0 33.5 SW | 220 13.6 33.7 S | 191 39.2 54.0 40.0
9/1/26 - 2230 39.7 30.9 52 23.4 33.7 SW | 234 17.0 33.7 WSW | 246 39.2 54.0 40.0
9/1/26 - 2215 39.4 30.0 55 24.6 33.9 SW | 235 19.0 40.0 SW | 219 39.2 54.0 40.0
9/1/26 - 2200 39.6 31.1 57 25.4 34.2 SW | 228 15.4 37.1 SW | 217 39.2 54.0 37.1
9/1/26 - 2145 39.5 31.8 58 26.1 34.4 SW | 227 13.1 33.5 WSW | 255 39.2 54.0 36.0
9/1/26 - 2130 39.4 31.7 60 26.8 34.6 SW | 231 13.0 33.4 WSW | 254 39.2 54.0 36.0
9/1/26 - 2115 39.5 32.7 62 27.4 34.8 SW | 221 10.9 27.7 W | 263 39.4 54.0 36.0
9/1/26 - 2100 39.7 32.2 62 27.6 35.0 SW | 223 12.7 35.7 WSW | 244 39.5 54.0 36.0
9/1/26 - 2045 39.8 32.9 63 28.1 35.2 SW | 222 11.2 28.8 SW | 224 39.7 54.0 36.0
9/1/26 - 2030 40.0 32.6 62 28.2 35.4 SW | 221 12.6 32.1 SW | 215 39.9 54.0 36.0
9/1/26 - 2015 40.2 33.7 62 28.3 35.5 SW | 219 10.6 28.0 W | 262 40.1 54.0 36.0
9/1/26 - 2000 40.4 33.5 62 28.3 35.6 SW | 221 11.6 29.9 WSW | 243 40.3 54.0 36.0
9/1/26 - 1945 40.7 35.7 60 27.9 35.7 SW | 225 7.3 19.4 S | 189 40.4 54.0 36.0
9/1/26 - 1930 41.2 35.5 58 27.5 35.8 SW | 221 9.2 26.1 SW | 214 40.7 54.0 36.0
9/1/26 - 1915 41.9 36.7 56 27.2 36.1 SW | 224 8.3 22.9 WSW | 251 40.7 54.0 36.0
9/1/26 - 1900 42.6 37.9 52 26.4 36.3 SW | 234 7.7 21.7 SW | 217 40.7 54.0 36.0
9/1/26 - 1845 43.4 39.5 49 25.4 36.4 SW | 218 6.4 24.4 S | 191 40.7 54.0 36.0
9/1/26 - 1830 43.9 39.2 48 25.3 36.7 SW | 226 8.5 25.4 W | 261 40.7 54.0 36.0
9/1/26 - 1815 44.5 40.2 46 24.9 36.8 WSW | 238 7.6 21.1 WSW | 255 40.7 54.0 36.0
9/1/26 - 1800 45.0 41.1 44 24.5 37.0 SW | 226 7.0 19.7 WSW | 256 40.7 54.0 36.0
9/1/26 - 1745 46.2 42.1 42 24.5 37.6 SW | 220 8.0 24.2 WSW | 241 40.7 54.0 36.0
9/1/26 - 1730 46.6 43.3 41 24.1 37.8 SW | 219 6.5 25.4 SW | 225 40.7 54.0 36.0
9/1/26 - 1715 47.0 44.3 41 24.5 38.1 WSW | 242 5.7 16.6 W | 260 40.7 54.0 36.0
9/1/26 - 1700 47.9 45.0 39 24.4 38.5 SW | 234 6.3 20.5 WSW | 254 40.7 54.0 36.0
9/1/26 - 1645 48.5 46.4 39 24.4 38.9 SW | 222 5.1 22.9 SSW | 201 40.7 54.0 36.0
9/1/26 - 1630 49.4 46.1 38 24.6 39.4 SW | 228 7.9 21.3 SSW | 199 40.7 54.0 36.0
9/1/26 - 1615 49.7 47.5 36 23.8 39.3 SSW | 206 5.7 19.6 SW | 220 40.7 54.0 36.0
9/1/26 - 1600 50.5 - 35 23.6 39.6 SSW | 211 4.8 16.6 SW | 215 40.7 54.0 36.0
9/1/26 - 1545 50.8 - 34 23.5 39.8 SW | 215 7.2 21.5 S | 183 40.7 54.0 36.0
9/1/26 - 1530 51.2 - 33 23.2 39.9 SSW | 209 8.9 31.9 WSW | 257 40.7 54.0 36.0
9/1/26 - 1515 50.9 - 33 22.9 39.6 SSW | 212 9.2 36.0 SW | 228 40.7 54.0 36.0
9/1/26 - 1500 51.2 - 32 22.5 39.7 SSW | 212 8.6 25.8 WSW | 240 40.7 54.0 32.2
9/1/26 - 1445 52.3 - 30 21.7 40.0 SW | 216 8.9 30.7 SW | 216 40.7 54.0 32.2
9/1/26 - 1430 51.6 - 32 22.5 39.9 SW | 224 11.0 27.8 SW | 234 40.7 53.9 32.2
9/1/26 - 1415 50.1 - 34 22.9 39.2 SW | 225 9.3 26.5 SW | 229 40.7 53.9 32.2
9/1/26 - 1400 50.5 - 34 23.3 39.6 SSW | 213 8.6 24.9 SSW | 207 40.7 53.9 32.2
9/1/26 - 1345 51.2 - 33 23.0 39.8 SSW | 203 7.1 23.0 SSE | 166 40.7 53.9 32.2
9/1/26 - 1330 50.4 - 33 22.4 39.3 SSW | 205 6.7 25.6 SSW | 208 40.7 53.9 32.2
9/1/26 - 1315 50.7 - 33 23.0 39.6 SSW | 212 8.4 26.7 WSW | 244 40.7 53.9 32.2
9/1/26 - 1300 52.0 - 33 23.8 40.5 SSW | 204 7.4 24.6 SSW | 202 40.7 53.9 32.2
9/1/26 - 1245 51.3 - 34 24.0 40.2 SSW | 210 8.0 20.8 WSW | 243 40.7 53.7 32.2
9/1/26 - 1230 51.4 - 33 23.2 40.0 SSW | 205 8.3 22.7 S | 177 40.7 53.7 32.2
9/1/26 - 1215 51.6 - 31 22.2 39.8 S | 191 6.9 22.8 SSW | 194 40.7 53.7 32.2
9/1/26 - 1200 51.8 - 30 21.5 39.7 S | 185 6.3 19.0 SSE | 167 40.7 53.4 32.2
9/1/26 - 1145 50.4 - 32 21.5 39.0 SSW | 202 7.1 22.7 SSW | 202 40.7 52.6 32.2
9/1/26 - 1130 51.0 - 33 22.7 39.6 SW | 214 7.2 18.2 SSE | 158 40.7 52.2 32.2
9/1/26 - 1115 50.0 46.9 35 23.6 39.4 SSW | 204 7.6 19.9 SSW | 211 40.7 51.3 32.2
9/1/26 - 1100 50.0 48.6 36 23.8 39.4 SSW | 204 4.4 13.6 SW | 216 40.7 51.3 32.2
9/1/26 - 1045 49.5 47.7 36 23.8 39.2 SW | 226 5.0 15.8 SW | 233 40.7 51.1 32.2
9/1/26 - 1030 48.5 45.6 38 23.9 38.7 SW | 216 6.5 19.5 SW | 226 40.7 49.8 32.2
9/1/26 - 1015 48.0 44.4 39 24.2 38.5 SW | 227 7.7 21.5 WSW | 242 40.7 49.8 32.2
9/1/26 - 1000 47.8 43.4 39 24.2 38.4 SW | 225 9.6 19.5 WSW | 248 40.7 48.8 32.2
9/1/26 - 0945 47.1 43.2 41 24.5 38.1 SW | 216 8.0 21.7 WSW | 256 40.7 48.5 32.2
9/1/26 - 0930 46.9 43.4 42 24.8 38.1 SW | 221 7.0 21.4 SW | 225 40.7 48.5 32.2
9/1/26 - 0915 46.2 41.8 46 26.4 38.3 SW | 231 9.0 19.4 WSW | 254 40.7 46.9 32.2
9/1/26 - 0900 45.6 41.4 47 26.5 37.9 SW | 227 8.0 18.4 WSW | 243 40.7 46.1 32.2
9/1/26 - 0845 45.0 41.2 49 27.2 37.8 SW | 229 6.9 20.1 WSW | 241 40.7 46.1 32.2
9/1/26 - 0830 44.1 39.8 53 28.1 37.6 SW | 226 7.4 18.1 SSW | 198 40.7 46.1 32.2
9/1/26 - 0815 42.9 37.6 60 29.9 37.6 SW | 225 9.0 25.5 WSW | 251 40.7 46.1 32.2
9/1/26 - 0800 41.7 35.9 66 31.2 37.4 SW | 230 9.6 23.8 WSW | 247 40.7 46.1 32.2
9/1/26 - 0745 41.4 36.2 66 31.0 37.2 SW | 227 8.4 25.9 SSW | 203 40.7 46.1 32.2
9/1/26 - 0730 41.4 37.9 65 30.4 37.0 SSW | 210 5.3 24.2 S | 191 40.7 46.1 32.2
9/1/26 - 0715 40.8 36.7 68 30.9 36.8 SSW | 201 6.1 18.5 S | 190 40.7 46.1 32.2
9/1/26 - 0700 41.1 39.5 65 30.1 36.7 SSW | 208 3.1 14.8 SW | 235 40.7 46.1 32.2
9/1/26 - 0645 41.0 39.1 64 29.6 36.5 SSW | 204 3.4 15.1 SSW | 199 40.7 46.1 32.2
9/1/26 - 0630 41.4 39.7 61 28.9 36.4 SW | 225 3.3 12.0 W | 271 41.3 46.1 32.2
9/1/26 - 0615 41.7 - 60 28.7 36.5 WSW | 244 2.5 10.8 W | 267 41.5 46.1 32.2
9/1/26 - 0600 42.0 - 58 28.4 36.6 ESE | 112 2.0 7.5 NE | 46 41.8 46.1 32.2
9/1/26 - 0545 42.2 - 58 28.3 36.6 NE | 48 1.8 5.8 NE | 55 41.8 46.1 32.2
9/1/26 - 0530 42.5 - 55 27.6 36.6 WSW | 250 2.4 11.7 SW | 229 42.1 46.1 32.2
9/1/26 - 0515 42.9 - 53 26.9 36.6 WSW | 245 1.5 6.6 SW | 225 42.4 46.1 32.2
9/1/26 - 0500 42.9 40.5 54 27.4 36.8 SW | 228 4.2 14.3 SW | 224 42.8 46.1 32.2
9/1/26 - 0445 43.5 42.0 48 25.4 36.5 SSW | 204 3.4 12.3 SW | 226 43.2 46.1 32.2
9/1/26 - 0430 43.4 41.1 51 26.5 36.8 SSW | 212 4.3 20.4 W | 260 43.3 46.1 32.2
9/1/26 - 0415 43.5 40.0 53 27.4 37.1 SW | 223 5.9 15.2 WSW | 241 43.3 46.1 32.2
9/1/26 - 0400 43.8 37.9 50 26.3 36.9 SW | 233 11.3 27.7 WSW | 246 43.5 46.1 32.2
9/1/26 - 0345 44.1 38.6 50 26.6 37.1 SW | 231 10.3 29.7 WSW | 245 43.7 46.1 32.2
9/1/26 - 0330 44.8 39.6 44 23.9 36.7 SW | 223 9.8 23.4 WSW | 238 44.4 46.1 32.2
9/1/26 - 0315 45.0 40.2 42 23.4 36.7 SW | 220 9.0 28.6 SSW | 206 44.4 46.1 32.2
9/1/26 - 0300 44.6 38.0 51 27.6 37.8 SW | 226 13.8 29.2 SW | 222 44.4 46.1 32.2
9/1/26 - 0245 44.7 38.7 53 28.5 38.1 SW | 224 12.3 25.9 W | 262 44.4 46.1 32.2
9/1/26 - 0230 45.0 39.9 53 28.9 38.4 SW | 218 9.9 22.1 SW | 236 44.4 46.1 32.2
9/1/26 - 0215 44.8 39.0 56 30.2 38.8 SW | 220 11.6 25.4 WSW | 248 44.4 46.1 32.2
9/1/26 - 0200 45.5 39.7 58 31.5 39.6 SW | 215 12.2 26.4 SW | 236 45.2 46.1 32.2
9/1/26 - 0145 45.9 40.2 59 32.4 40.1 SW | 217 12.2 31.0 WSW | 255 45.4 46.1 32.2
9/1/26 - 0130 45.7 39.6 61 33.0 40.3 SW | 221 13.5 30.9 SSW | 203 45.4 46.1 32.2
9/1/26 - 0115 45.7 39.4 62 33.3 40.4 SW | 222 14.2 32.2 SW | 221 45.4 46.1 32.2
9/1/26 - 0100 45.8 39.8 62 33.7 40.6 SW | 231 13.2 28.0 WSW | 242 45.7 62.3 36.0
9/1/26 - 0045 46.3 43.3 62 33.9 40.9 SSW | 206 6.0 17.8 SSW | 203 45.9 62.3 36.0
9/1/26 - 0030 46.9 43.6 61 34.1 41.3 SSW | 210 6.7 18.0 SW | 221 46.3 62.3 36.0
9/1/26 - 0015 47.7 46.0 59 34.0 41.7 SSW | 207 4.3 14.3 SW | 232 46.3 62.3 36.0
9/1/26 - 0000 47.8 45.8 59 34.3 41.8 SSW | 206 4.6 19.1 SSW | 205 46.3 62.3 36.0
8/31/26 - 2345 48.6 47.5 57 34.2 42.2 SSW | 200 3.7 12.5 WSW | 255 46.3 62.3 36.0
8/31/26 - 2330 49.3 47.5 55 33.8 42.4 SSW | 210 4.8 16.3 SSW | 202 46.3 62.3 36.0
8/31/26 - 2315 49.5 47.6 54 33.5 42.4 SSW | 210 5.1 14.0 WSW | 254 46.3 62.3 36.0
8/31/26 - 2300 49.1 46.0 55 33.8 42.3 SW | 220 7.1 23.4 WSW | 246 46.3 62.3 36.0
8/31/26 - 2245 49.3 45.9 53 33.1 42.2 SW | 221 8.1 22.1 WSW | 244 46.3 62.3 36.0
8/31/26 - 2230 51.3 - 43 29.4 41.8 SSW | 212 3.9 17.4 W | 277 46.3 62.3 36.0
8/31/26 - 2215 50.9 - 43 29.5 41.6 SSW | 210 6.1 21.5 WSW | 254 46.3 62.3 36.0
8/31/26 - 2200 50.0 47.0 49 31.7 41.9 SW | 220 7.3 19.8 WSW | 240 46.3 62.3 36.0
8/31/26 - 2145 48.8 45.3 56 33.7 42.1 SSW | 211 7.9 21.1 WSW | 255 46.3 62.3 36.0
8/31/26 - 2130 49.0 44.5 56 34.2 42.5 SSW | 212 11.1 22.2 SSW | 210 46.3 62.3 36.0
8/31/26 - 2115 49.5 44.9 55 34.1 42.6 SW | 220 11.8 28.4 SW | 223 46.3 62.3 36.0
8/31/26 - 2100 48.7 44.8 56 33.7 42.1 SSW | 213 9.0 26.1 SW | 224 46.3 62.3 36.0
8/31/26 - 2045 46.7 42.2 59 33.3 40.9 SW | 215 9.3 23.0 SW | 227 46.3 62.3 36.0
8/31/26 - 2030 46.5 40.6 60 33.5 40.9 SW | 218 13.4 28.9 SW | 230 46.4 62.3 36.0
8/31/26 - 2015 46.8 40.3 61 33.9 41.2 SW | 223 16.3 31.9 SW | 221 46.7 62.3 36.0
8/31/26 - 2000 47.3 40.6 60 34.2 41.6 SW | 226 17.2 32.2 SW | 215 46.9 62.3 36.0
8/31/26 - 1945 47.7 41.1 60 34.5 41.9 SW | 228 17.3 36.0 WSW | 241 47.4 62.3 36.0
8/31/26 - 1930 48.3 42.1 59 34.7 42.3 SW | 230 16.6 29.8 WSW | 248 48.0 62.3 31.0
8/31/26 - 1915 48.8 43.3 59 35.3 42.8 SW | 226 14.4 30.2 SW | 220 48.6 62.3 31.0
8/31/26 - 1900 49.0 44.0 59 35.3 42.9 SW | 221 13.0 26.2 SW | 222 48.9 62.3 31.0
8/31/26 - 1845 49.8 45.4 57 35.4 43.3 SSW | 212 11.4 22.8 WSW | 246 49.0 62.3 31.0
8/31/26 - 1830 50.5 - 57 35.7 43.8 SW | 217 11.6 23.6 WSW | 245 49.0 62.3 31.0
8/31/26 - 1815 50.7 - 56 35.8 43.9 SW | 226 12.9 31.0 WSW | 256 49.0 62.3 31.0
8/31/26 - 1800 51.2 - 56 35.9 44.2 SW | 225 13.0 27.5 SW | 230 49.0 62.3 30.0
8/31/26 - 1745 52.2 - 53 35.8 44.6 SW | 227 13.5 30.0 SW | 216 49.0 62.3 30.0
8/31/26 - 1730 52.7 - 53 35.9 44.9 SW | 226 12.3 28.2 SW | 217 49.0 62.3 28.2
8/31/26 - 1715 53.2 - 51 35.8 45.1 SW | 228 9.6 20.9 WSW | 248 49.0 62.3 21.4
8/31/26 - 1700 53.9 - 50 35.9 45.4 SW | 229 8.8 19.9 SSW | 206 49.0 62.3 21.4
8/31/26 - 1645 54.4 - 49 35.7 45.6 SW | 218 7.1 17.0 WSW | 251 49.0 62.3 21.4
8/31/26 - 1630 55.2 - 46 34.9 45.6 SW | 222 6.8 16.9 S | 187 49.0 62.3 21.4
8/31/26 - 1615 55.8 - 45 34.8 45.8 SW | 217 5.5 16.6 SW | 230 49.0 62.3 21.4
8/31/26 - 1600 56.0 - 44 34.2 45.7 SSW | 211 4.4 15.3 SW | 230 49.0 62.3 21.4
8/31/26 - 1545 57.0 - 42 34.1 46.1 SSW | 193 5.5 15.5 SSW | 196 49.0 62.3 21.4
8/31/26 - 1530 57.3 - 41 33.7 46.1 SSW | 202 6.1 19.6 SSW | 205 49.0 62.3 21.4
8/31/26 - 1515 57.6 - 40 33.3 46.1 SW | 222 5.3 20.4 SSW | 204 49.0 62.3 21.4
8/31/26 - 1500 58.5 - 38 32.7 46.3 SW | 227 6.2 18.1 SW | 230 49.0 62.3 21.4
8/31/26 - 1445 58.4 - 37 32.5 46.1 SSW | 195 6.0 16.3 SSE | 162 49.0 62.3 21.4
8/31/26 - 1430 59.8 - 35 31.9 46.5 SSW | 210 6.7 15.8 SW | 226 49.0 62.3 21.4
8/31/26 - 1415 58.9 - 34 30.8 45.8 SW | 227 7.8 20.3 SW | 233 49.0 62.3 21.4
8/31/26 - 1400 58.4 - 33 29.4 45.1 SSW | 211 7.6 18.9 SW | 235 49.0 62.3 21.4
8/31/26 - 1345 58.6 - 32 28.6 44.9 SSW | 211 6.6 16.8 SSW | 205 49.0 62.3 21.4
8/31/26 - 1330 58.4 - 30 27.2 44.4 SW | 226 8.2 17.8 WSW | 238 49.0 62.3 21.4
8/31/26 - 1315 58.9 - 28 26.0 44.3 SSW | 201 5.6 20.2 S | 188 49.0 62.3 21.4
8/31/26 - 1300 58.4 - 29 26.4 44.2 SSW | 200 6.2 21.4 SSW | 196 49.0 62.3 21.4
8/31/26 - 1245 57.8 - 30 26.8 44.0 SW | 217 6.5 19.2 SW | 216 49.0 62.3 19.2
8/31/26 - 1230 59.3 - 28 26.1 44.4 SW | 221 4.8 17.3 WSW | 242 49.0 62.3 17.3
8/31/26 - 1215 58.9 - 28 26.1 44.3 S | 188 3.2 11.5 SW | 225 49.0 62.3 15.6
8/31/26 - 1200 57.9 - 29 25.7 43.8 WNW | 282 4.6 15.6 WNW | 292 49.0 62.3 15.6
8/31/26 - 1145 57.1 - 29 25.0 43.2 WSW | 256 4.8 12.1 W | 279 49.0 62.3 15.3
8/31/26 - 1130 58.0 - 27 24.2 43.4 SW | 229 3.6 9.7 SW | 230 49.0 62.3 15.3
8/31/26 - 1115 60.3 - 25 24.5 44.5 SSE | 166 5.7 13.9 S | 173 49.0 62.3 15.3
8/31/26 - 1100 59.6 - 25 24.2 44.0 S | 178 3.8 12.1 SW | 217 49.0 61.6 15.3
8/31/26 - 1045 58.9 - 27 24.7 43.9 SSE | 158 3.9 9.7 SSW | 200 49.0 61.6 15.3
8/31/26 - 1030 59.0 - 27 25.4 44.2 SSE | 166 2.9 9.0 S | 177 49.0 61.6 15.3
8/31/26 - 1015 60.1 - 27 25.9 44.8 SE | 137 3.8 10.3 SSE | 154 49.0 61.6 15.3
8/31/26 - 1000 59.0 - 28 26.0 44.3 E | 99 3.7 10.1 ESE | 102 49.0 60.5 15.3
8/31/26 - 0945 58.1 - 29 25.6 43.8 ESE | 108 3.5 7.6 ESE | 109 49.0 59.6 15.3
8/31/26 - 0930 57.6 - 28 25.0 43.4 SSE | 165 2.7 8.3 SSE | 162 49.0 58.3 15.3
8/31/26 - 0915 56.2 - 28 23.4 42.3 S | 169 3.9 10.4 SE | 137 49.0 57.5 15.3
Max 60.3 48.6 68 35.9 46.5 - 19.0 40.0 - 49.0 62.3 40.0
Avg 46.5 37.3 47 26.5 38.3 - 8.7 23.1 - - - -
Min 35.8 28.0 25 17.8 30.1 - 1.5 5.8 - 35.6 39.6 15.3